Baqubah, Iraq
Current Conditions -  °F | °C
As of 11:00 AM on Friday 21 Nov 2014 (Local Time) from ORBI Reporting Station
Scattered Clouds Scattered Clouds  
Wind Chill: 64°   Ceiling: Unl
Heat Index: 64°   Visibility: 3mi
Dew Point: 50°   Wind: 5mph
Humidity: 59%   Direction: 110°ESE
Pressure: 30.06"   Gusts: NA
Location:  33.75°N, 44.64°E
Report Text: ORBI 210800Z 11004KT 080V150 5000 SCT030 18/10 Q1018 NOSIG
Loading
Personal Weather Stations






























Interactive Weather Map New forecast layout! Learn more

10-Day Weather Forecast

Advertisements
Track Severe Weather on mobile